Time;durP1;ratioP1;P1;durP2;ratioP2;P2;SDS_P1;SDS_P2;PMS_P1;PMS_P2;Temp;Humidity;BMP_temperature;BMP_pressure;BME280_temperature;BME280_humidity;BME280_pressure;Samples;Min_cycle;Max_cycle;Signal;HPM_P1;HPM_P2
2022/10/01 00:01:56;;;;;;;;;;;17.70;96.50;;;;;;5091693;28;19918;-76
2022/10/01 00:04:23;;;;;;;;;;;17.70;96.80;;;;;;5085357;28;20060;-74
2022/10/01 00:06:49;;;;;;;;;;;17.60;98.20;;;;;;5099950;28;19952;-76
2022/10/01 00:09:16;;;;;;;;;;;17.50;98.70;;;;;;5087987;28;19916;-78
2022/10/01 00:11:43;;;;;;;;;;;17.30;98.80;;;;;;5090503;28;19913;-74
2022/10/01 00:14:10;;;;;;;;;;;17.20;98.60;;;;;;5092730;28;19954;-76
2022/10/01 00:16:36;;;;;;;;;;;17.10;99.10;;;;;;5092667;28;19912;-76
2022/10/01 00:19:03;;;;;;;;;;;17.10;98.30;;;;;;5094199;28;19914;-76
2022/10/01 00:21:30;;;;;;;;;;;17.20;98.30;;;;;;5093666;28;20257;-74
2022/10/01 00:23:58;;;;;;;;;;;17.20;96.80;;;;;;5094556;28;19916;-74
2022/10/01 00:26:26;;;;;;;;;;;17.40;96.70;;;;;;5094588;28;20387;-73
2022/10/01 00:28:57;;;;;;;;;;;17.70;96.00;;;;;;5097306;28;20373;-77
2022/10/01 00:31:24;;;;;;;;;;;17.90;95.10;;;;;;5097440;28;19912;-75
2022/10/01 00:33:54;;;;;;;;;;;18.00;95.10;;;;;;5106568;28;19961;-77
2022/10/01 00:36:21;;;;;;;;;;;18.20;95.40;;;;;;5105590;28;20120;-74
2022/10/01 00:38:48;;;;;;;;;;;18.30;95.70;;;;;;5098120;28;19912;-77
2022/10/01 00:41:15;;;;;;;;;;;18.30;97.70;;;;;;5110213;28;19912;-76
2022/10/01 00:43:43;;;;;;;;;;;17.80;98.70;;;;;;5099512;28;19919;-77
2022/10/01 00:46:45;;;;;;;;;;;17.60;99.20;;;;;;5103460;28;19949;-77
2022/10/01 00:49:18;;;;;;;;;;;17.50;99.90;;;;;;5030595;28;19920;-75
2022/10/01 00:51:50;;;;;;;;;;;17.20;99.90;;;;;;5089838;28;20330;-74
2022/10/01 00:54:20;;;;;;;;;;;17.20;99.90;;;;;;5102416;28;19908;-77
2022/10/01 00:56:46;;;;;;;;;;;17.20;99.90;;;;;;5108356;28;19938;-75
2022/10/01 00:59:15;;;;;;;;;;;17.20;99.80;;;;;;5096154;28;20387;-77
2022/10/01 01:01:41;;;;;;;;;;;17.30;99.80;;;;;;5107373;28;19968;-76
2022/10/01 01:04:18;;;;;;;;;;;17.60;99.10;;;;;;5103099;28;19963;-76
2022/10/01 01:06:46;;;;;;;;;;;17.90;98.80;;;;;;5098888;28;19923;-78
2022/10/01 01:09:13;;;;;;;;;;;18.10;97.30;;;;;;5109882;28;19967;-75
2022/10/01 01:11:48;;;;;;;;;;;18.50;96.90;;;;;;5098749;28;19915;-76
2022/10/01 01:14:18;;;;;;;;;;;18.70;96.70;;;;;;5102172;28;20453;-75
2022/10/01 01:16:53;;;;;;;;;;;19.10;95.30;;;;;;5097114;28;19908;-74
2022/10/01 01:19:23;;;;;;;;;;;19.30;94.10;;;;;;5093144;28;20476;-77
2022/10/01 01:21:52;;;;;;;;;;;19.50;94.60;;;;;;5093464;28;19951;-76
2022/10/01 01:24:24;;;;;;;;;;;19.60;94.90;;;;;;5093689;28;20237;-77
2022/10/01 01:26:52;;;;;;;;;;;19.70;95.00;;;;;;5093000;28;19908;-76
2022/10/01 01:29:34;;;;;;;;;;;19.60;94.70;;;;;;5093449;28;19908;-74
2022/10/01 01:32:06;;;;;;;;;;;19.40;95.20;;;;;;5092868;28;19912;-77
2022/10/01 01:34:34;;;;;;;;;;;19.60;95.20;;;;;;5092031;28;19994;-77
2022/10/01 01:37:04;;;;;;;;;;;19.70;95.50;;;;;;5092853;28;20005;-74
2022/10/01 01:39:32;;;;;;;;;;;19.70;95.00;;;;;;5092648;28;20271;-75
2022/10/01 01:42:00;;;;;;;;;;;19.50;95.50;;;;;;5092823;28;19916;-76
2022/10/01 01:44:29;;;;;;;;;;;19.60;95.30;;;;;;5092346;28;20056;-76
2022/10/01 01:46:56;;;;;;;;;;;19.40;95.20;;;;;;5083514;28;19930;-76
2022/10/01 01:49:23;;;;;;;;;;;19.60;94.90;;;;;;5086727;28;20295;-75
2022/10/01 01:51:59;;;;;;;;;;;19.70;93.70;;;;;;5092664;28;19908;-77
2022/10/01 01:54:28;;;;;;;;;;;19.90;93.00;;;;;;5092548;28;20264;-75
2022/10/01 01:56:55;;;;;;;;;;;20.00;92.60;;;;;;5074431;28;19935;-76
2022/10/01 01:59:22;;;;;;;;;;;20.10;92.90;;;;;;5108069;28;20347;-76
2022/10/01 02:01:49;;;;;;;;;;;20.30;92.30;;;;;;5092037;28;19960;-74
2022/10/01 02:04:24;;;;;;;;;;;20.40;93.10;;;;;;5092119;28;19978;-76
2022/10/01 02:07:06;;;;;;;;;;;20.70;92.60;;;;;;5090555;28;20441;-77
2022/10/01 02:09:50;;;;;;;;;;;20.90;92.50;;;;;;5092596;28;19912;-76
2022/10/01 02:12:36;;;;;;;;;;;21.10;91.00;;;;;;5106081;28;19974;-75
2022/10/01 02:15:08;;;;;;;;;;;21.30;91.20;;;;;;5079417;28;19908;-76
2022/10/01 02:17:41;;;;;;;;;;;21.60;90.50;;;;;;5071959;28;19908;-76
2022/10/01 02:20:14;;;;;;;;;;;21.70;91.20;;;;;;5071533;28;19930;-75
2022/10/01 02:22:44;;;;;;;;;;;21.70;91.40;;;;;;5071606;28;19950;-76
2022/10/01 02:25:10;;;;;;;;;;;21.40;90.10;;;;;;5071870;28;19974;-77
2022/10/01 02:28:03;;;;;;;;;;;21.10;90.60;;;;;;5071631;28;19916;-74
2022/10/01 02:30:31;;;;;;;;;;;20.80;89.60;;;;;;5082765;28;19935;-76
2022/10/01 02:32:59;;;;;;;;;;;20.40;89.30;;;;;;5091512;28;20257;-75
2022/10/01 02:35:27;;;;;;;;;;;20.10;90.40;;;;;;5103279;28;20052;-75
2022/10/01 02:37:55;;;;;;;;;;;20.00;90.50;;;;;;5107317;28;20276;-79
2022/10/01 02:40:25;;;;;;;;;;;20.60;89.80;;;;;;5091404;28;20353;-75
2022/10/01 02:42:54;;;;;;;;;;;20.90;88.10;;;;;;5091649;28;20006;-76
2022/10/01 02:45:22;;;;;;;;;;;21.20;87.30;;;;;;5074118;28;20013;-73
2022/10/01 02:48:09;;;;;;;;;;;21.30;86.50;;;;;;5091879;28;20310;-77
2022/10/01 02:50:56;;;;;;;;;;;21.70;84.70;;;;;;5091547;28;20015;-75
2022/10/01 02:53:29;;;;;;;;;;;21.90;87.10;;;;;;5093951;28;19934;-74
2022/10/01 02:55:56;;;;;;;;;;;22.30;85.50;;;;;;5095481;28;19916;-76
2022/10/01 02:58:22;;;;;;;;;;;22.20;85.10;;;;;;5103456;28;19943;-75
2022/10/01 03:00:49;;;;;;;;;;;21.90;86.50;;;;;;5102547;28;19923;-74
2022/10/01 03:03:16;;;;;;;;;;;21.50;86.00;;;;;;5095539;28;19916;-76
2022/10/01 03:05:42;;;;;;;;;;;22.10;88.00;;;;;;5107880;28;20419;-77
2022/10/01 03:08:09;;;;;;;;;;;23.20;85.10;;;;;;5096825;28;20001;-75
2022/10/01 03:10:36;;;;;;;;;;;24.00;84.00;;;;;;5101517;28;19908;-75
2022/10/01 03:13:06;;;;;;;;;;;25.00;80.80;;;;;;5091154;28;20430;-73
2022/10/01 03:15:32;;;;;;;;;;;25.30;80.60;;;;;;5091055;28;19998;-73
2022/10/01 03:17:59;;;;;;;;;;;24.90;78.80;;;;;;5091025;28;20255;-73
2022/10/01 03:20:26;;;;;;;;;;;23.90;80.30;;;;;;5090986;28;19915;-76
2022/10/01 03:22:52;;;;;;;;;;;23.60;82.00;;;;;;5091224;28;19955;-74
2022/10/01 03:25:19;;;;;;;;;;;24.00;81.80;;;;;;5073150;28;19920;-73
2022/10/01 03:27:46;;;;;;;;;;;24.40;80.40;;;;;;5091625;28;20352;-74
2022/10/01 03:30:12;;;;;;;;;;;24.60;78.70;;;;;;5091025;28;19912;-74
2022/10/01 03:32:39;;;;;;;;;;;24.20;79.20;;;;;;5091192;28;19959;-75
2022/10/01 03:35:08;;;;;;;;;;;23.70;81.60;;;;;;5091212;28;19908;-74
2022/10/01 03:37:35;;;;;;;;;;;23.10;83.70;;;;;;5091242;28;19913;-73
2022/10/01 03:40:02;;;;;;;;;;;22.50;86.50;;;;;;5091666;28;19908;-74
2022/10/01 03:42:28;;;;;;;;;;;21.80;87.60;;;;;;5090979;28;19916;-75
2022/10/01 03:44:55;;;;;;;;;;;21.30;89.80;;;;;;5091231;28;19918;-75
2022/10/01 03:47:23;;;;;;;;;;;20.90;90.00;;;;;;5093476;28;19919;-78
2022/10/01 03:49:49;;;;;;;;;;;20.60;90.60;;;;;;5091731;28;19908;-77
2022/10/01 03:52:16;;;;;;;;;;;20.40;90.70;;;;;;5094766;28;19908;-76
2022/10/01 03:54:43;;;;;;;;;;;20.30;91.20;;;;;;5094442;28;19998;-76
2022/10/01 03:57:09;;;;;;;;;;;20.10;90.70;;;;;;5076175;28;19908;-77
2022/10/01 03:59:36;;;;;;;;;;;20.30;91.40;;;;;;5094649;28;20334;-76
2022/10/01 04:02:03;;;;;;;;;;;21.50;91.00;;;;;;5094680;28;19908;-72
2022/10/01 04:04:29;;;;;;;;;;;22.20;87.10;;;;;;5094251;28;19923;-76
2022/10/01 04:06:56;;;;;;;;;;;22.10;87.10;;;;;;5094617;28;20007;-75
2022/10/01 04:09:24;;;;;;;;;;;21.60;87.20;;;;;;5094635;28;19912;-74
2022/10/01 04:11:51;;;;;;;;;;;22.20;87.60;;;;;;5094753;28;19998;-73
2022/10/01 04:14:17;;;;;;;;;;;22.90;85.40;;;;;;5094394;28;19957;-73
2022/10/01 04:16:44;;;;;;;;;;;23.70;82.40;;;;;;5094296;28;20261;-72
2022/10/01 04:19:10;;;;;;;;;;;23.80;80.60;;;;;;5094434;28;19908;-73
2022/10/01 04:21:38;;;;;;;;;;;23.70;80.60;;;;;;5094316;28;19908;-75
2022/10/01 04:24:04;;;;;;;;;;;24.10;81.60;;;;;;5094175;28;19944;-73
2022/10/01 04:26:31;;;;;;;;;;;24.40;80.10;;;;;;5094381;28;19974;-75
2022/10/01 04:28:57;;;;;;;;;;;24.20;78.80;;;;;;5093571;28;20272;-75
2022/10/01 04:31:24;;;;;;;;;;;24.50;77.10;;;;;;5094044;28;19908;-72
2022/10/01 04:33:52;;;;;;;;;;;24.90;75.90;;;;;;5096044;28;19919;-74
2022/10/01 04:36:19;;;;;;;;;;;25.10;73.80;;;;;;5093681;28;19908;-73
2022/10/01 04:38:46;;;;;;;;;;;25.40;73.60;;;;;;5094037;28;19977;-74
2022/10/01 04:41:13;;;;;;;;;;;25.70;72.60;;;;;;5094292;28;19955;-73
2022/10/01 04:43:40;;;;;;;;;;;25.90;72.60;;;;;;5075647;28;19920;-74
2022/10/01 04:46:07;;;;;;;;;;;26.30;74.20;;;;;;5093727;28;20335;-73
2022/10/01 04:48:33;;;;;;;;;;;26.30;73.10;;;;;;5094113;28;20290;-77
2022/10/01 04:51:00;;;;;;;;;;;26.00;72.90;;;;;;5091197;28;19927;-76
2022/10/01 04:53:27;;;;;;;;;;;25.50;73.50;;;;;;5082170;28;20427;-73
2022/10/01 04:55:54;;;;;;;;;;;24.60;74.10;;;;;;5093456;28;19944;-76
2022/10/01 04:58:20;;;;;;;;;;;24.10;76.60;;;;;;5093508;28;19908;-74
2022/10/01 05:00:48;;;;;;;;;;;24.30;76.50;;;;;;5093710;28;19912;-75
2022/10/01 05:03:15;;;;;;;;;;;24.70;73.70;;;;;;5092467;28;19977;-74
2022/10/01 05:05:41;;;;;;;;;;;25.30;74.00;;;;;;5092930;28;19939;-73
2022/10/01 05:08:08;;;;;;;;;;;26.20;71.70;;;;;;5075074;28;19908;-74
2022/10/01 05:10:35;;;;;;;;;;;27.10;70.20;;;;;;5093517;28;20056;-75
2022/10/01 05:13:02;;;;;;;;;;;27.30;68.80;;;;;;5093124;28;19927;-74
2022/10/01 05:15:29;;;;;;;;;;;27.10;69.40;;;;;;5093139;28;20425;-74
2022/10/01 05:17:56;;;;;;;;;;;27.10;69.60;;;;;;5074941;28;20010;-73
2022/10/01 05:20:24;;;;;;;;;;;27.60;69.40;;;;;;5074798;28;19909;-74
2022/10/01 05:22:51;;;;;;;;;;;27.60;67.20;;;;;;5092933;28;20340;-73
2022/10/01 05:25:18;;;;;;;;;;;27.30;67.80;;;;;;5092707;28;19959;-74
2022/10/01 05:27:45;;;;;;;;;;;26.30;68.70;;;;;;5092962;28;19916;-76
2022/10/01 05:30:13;;;;;;;;;;;25.90;71.90;;;;;;5092993;28;19931;-76
2022/10/01 05:32:40;;;;;;;;;;;25.30;71.10;;;;;;5092781;28;19908;-74
2022/10/01 05:35:07;;;;;;;;;;;24.60;72.00;;;;;;5092724;28;19908;-75
2022/10/01 05:37:34;;;;;;;;;;;24.00;74.60;;;;;;5092859;28;19927;-75
2022/10/01 05:40:01;;;;;;;;;;;23.10;75.40;;;;;;5092706;28;19969;-74
2022/10/01 05:42:27;;;;;;;;;;;22.50;75.70;;;;;;5091996;28;19908;-74
2022/10/01 05:44:54;;;;;;;;;;;22.30;78.00;;;;;;5092496;28;20343;-73
2022/10/01 05:47:21;;;;;;;;;;;22.20;76.60;;;;;;5092300;28;19912;-73
2022/10/01 05:49:48;;;;;;;;;;;22.10;77.90;;;;;;5074343;28;20376;-77
2022/10/01 05:52:15;;;;;;;;;;;22.20;77.10;;;;;;5092460;28;20348;-74
2022/10/01 05:54:42;;;;;;;;;;;21.70;78.70;;;;;;5092893;28;19915;-74
2022/10/01 05:57:09;;;;;;;;;;;21.40;79.20;;;;;;5074296;28;19915;-73
2022/10/01 05:59:35;;;;;;;;;;;21.20;80.20;;;;;;5092413;28;20395;-76
2022/10/01 06:02:02;;;;;;;;;;;21.30;81.00;;;;;;5092303;28;19969;-72
2022/10/01 06:04:29;;;;;;;;;;;21.60;79.40;;;;;;5092149;28;19916;-75
2022/10/01 06:06:56;;;;;;;;;;;21.70;79.50;;;;;;5091920;28;19908;-73
2022/10/01 06:09:22;;;;;;;;;;;22.10;81.50;;;;;;5092589;28;20356;-72
2022/10/01 06:11:49;;;;;;;;;;;22.90;77.50;;;;;;5092059;28;20307;-76
2022/10/01 06:14:16;;;;;;;;;;;23.60;77.20;;;;;;5092268;28;19908;-74
2022/10/01 06:16:43;;;;;;;;;;;23.80;77.70;;;;;;5092175;28;20003;-80
2022/10/01 06:19:10;;;;;;;;;;;23.00;84.90;;;;;;5092945;28;20003;-76
2022/10/01 06:21:36;;;;;;;;;;;22.10;89.60;;;;;;5074013;28;19908;-78
2022/10/01 06:24:03;;;;;;;;;;;21.20;92.40;;;;;;5092009;28;19916;-78
2022/10/01 06:26:30;;;;;;;;;;;21.20;93.10;;;;;;5092100;28;19999;-77
2022/10/01 06:28:56;;;;;;;;;;;21.30;92.30;;;;;;5091861;28;19948;-76
2022/10/01 06:31:24;;;;;;;;;;;21.60;91.90;;;;;;5091987;28;19914;-78
2022/10/01 06:33:50;;;;;;;;;;;21.60;91.80;;;;;;5074093;28;19913;-77
2022/10/01 06:36:17;;;;;;;;;;;22.30;90.50;;;;;;5091769;28;20008;-76
2022/10/01 06:38:46;;;;;;;;;;;23.00;89.00;;;;;;5091814;28;19916;-74
2022/10/01 06:41:13;;;;;;;;;;;23.40;84.30;;;;;;5091830;28;19908;-75
2022/10/01 06:43:39;;;;;;;;;;;23.10;85.60;;;;;;5091854;28;19920;-76
2022/10/01 06:46:06;;;;;;;;;;;23.00;85.70;;;;;;5092097;28;19912;-76
2022/10/01 06:48:35;;;;;;;;;;;22.70;86.10;;;;;;5091620;28;20478;-72
2022/10/01 06:51:04;;;;;;;;;;;22.40;86.30;;;;;;5091870;28;19908;-76
2022/10/01 06:53:31;;;;;;;;;;;21.90;86.80;;;;;;5091656;28;19916;-75
2022/10/01 06:56:03;;;;;;;;;;;21.10;89.20;;;;;;5094035;28;20280;-77
2022/10/01 06:58:29;;;;;;;;;;;20.60;91.20;;;;;;5091848;28;19950;-81
2022/10/01 07:01:00;;;;;;;;;;;19.80;93.60;;;;;;5091202;28;19909;-80
2022/10/01 07:03:27;;;;;;;;;;;19.20;93.80;;;;;;5091790;28;19908;-78
2022/10/01 07:05:53;;;;;;;;;;;18.40;96.00;;;;;;5091889;28;19943;-78
2022/10/01 07:08:21;;;;;;;;;;;18.00;97.40;;;;;;5073398;28;20002;-77
2022/10/01 07:10:47;;;;;;;;;;;17.70;97.80;;;;;;5091607;28;19920;-77
2022/10/01 07:13:15;;;;;;;;;;;17.50;98.50;;;;;;5091705;28;19914;-77
2022/10/01 07:15:42;;;;;;;;;;;17.10;99.00;;;;;;5107196;28;20342;-80
2022/10/01 07:18:09;;;;;;;;;;;17.00;99.90;;;;;;5091547;28;19941;-76
2022/10/01 07:20:38;;;;;;;;;;;16.90;99.90;;;;;;5091617;28;19969;-77
2022/10/01 07:23:06;;;;;;;;;;;16.90;99.90;;;;;;5091575;28;19919;-75
2022/10/01 07:25:37;;;;;;;;;;;16.70;99.90;;;;;;5093479;28;19923;-76
2022/10/01 07:28:04;;;;;;;;;;;16.60;99.90;;;;;;5111151;28;19908;-78
2022/10/01 07:30:31;;;;;;;;;;;16.50;99.90;;;;;;5095410;28;19939;-79
2022/10/01 07:32:58;;;;;;;;;;;16.50;99.90;;;;;;5097383;28;20376;-75
2022/10/01 07:35:25;;;;;;;;;;;16.50;99.90;;;;;;5094940;28;19908;-75
2022/10/01 07:37:54;;;;;;;;;;;16.50;99.90;;;;;;5095191;28;20014;-77
2022/10/01 07:40:20;;;;;;;;;;;16.40;99.90;;;;;;5095280;28;19908;-75
2022/10/01 07:42:54;;;;;;;;;;;16.40;99.90;;;;;;5095185;28;20326;-76
2022/10/01 07:45:24;;;;;;;;;;;16.20;99.90;;;;;;5094968;28;20329;-75
2022/10/01 07:47:58;;;;;;;;;;;16.10;99.90;;;;;;5095092;28;19908;-77
2022/10/01 07:50:25;;;;;;;;;;;16.00;99.90;;;;;;5096938;28;19912;-75
2022/10/01 07:52:56;;;;;;;;;;;16.10;99.90;;;;;;5094391;28;20247;-74
2022/10/01 07:55:25;;;;;;;;;;;16.10;99.90;;;;;;5094912;28;19908;-78
2022/10/01 07:57:53;;;;;;;;;;;16.10;99.90;;;;;;5094436;28;19908;-77
2022/10/01 08:00:21;;;;;;;;;;;16.00;99.90;;;;;;5094657;28;19908;-74
2022/10/01 08:02:48;;;;;;;;;;;16.00;99.90;;;;;;5094324;28;19912;-75
2022/10/01 08:05:18;;;;;;;;;;;16.00;99.90;;;;;;5094213;28;20011;-76
2022/10/01 08:07:46;;;;;;;;;;;16.00;99.90;;;;;;5094077;28;19958;-77
2022/10/01 08:10:13;;;;;;;;;;;15.90;99.90;;;;;;5094030;28;19912;-74
2022/10/01 08:12:43;;;;;;;;;;;15.80;99.90;;;;;;5094437;28;19908;-76
2022/10/01 08:15:10;;;;;;;;;;;15.70;99.90;;;;;;5088357;28;20380;-77
2022/10/01 08:17:37;;;;;;;;;;;15.60;99.90;;;;;;5090770;28;19915;-79
2022/10/01 08:20:05;;;;;;;;;;;15.50;99.90;;;;;;5094390;28;19908;-73
2022/10/01 08:22:32;;;;;;;;;;;15.50;99.90;;;;;;5094824;28;19908;-73
2022/10/01 08:24:59;;;;;;;;;;;15.30;99.90;;;;;;5094982;28;19916;-78
2022/10/01 08:27:26;;;;;;;;;;;15.30;99.90;;;;;;5094397;28;19920;-78
2022/10/01 08:29:53;;;;;;;;;;;15.40;99.90;;;;;;5095144;28;19908;-75
2022/10/01 08:32:20;;;;;;;;;;;15.40;99.90;;;;;;5094706;28;19913;-78
2022/10/01 08:34:48;;;;;;;;;;;15.40;99.90;;;;;;5095308;28;20256;-77
2022/10/01 08:37:15;;;;;;;;;;;15.30;99.90;;;;;;5093172;28;19938;-76
2022/10/01 08:39:42;;;;;;;;;;;15.30;99.90;;;;;;5093874;28;19908;-76
2022/10/01 08:42:32;;;;;;;;;;;15.30;99.90;;;;;;5094379;28;19915;-76
2022/10/01 08:45:01;;;;;;;;;;;15.20;99.90;;;;;;5053804;28;19998;-74
2022/10/01 08:47:30;;;;;;;;;;;15.20;99.90;;;;;;5053726;28;20003;-74
2022/10/01 08:50:00;;;;;;;;;;;15.20;99.90;;;;;;5053641;28;20349;-80
2022/10/01 08:52:31;;;;;;;;;;;15.20;99.90;;;;;;5053710;28;19962;-78
2022/10/01 08:55:04;;;;;;;;;;;15.10;99.90;;;;;;5053347;28;19909;-77
2022/10/01 08:57:33;;;;;;;;;;;15.20;99.90;;;;;;5053708;28;19909;-76
2022/10/01 09:00:02;;;;;;;;;;;15.10;99.90;;;;;;5053658;28;19908;-73
2022/10/01 09:02:31;;;;;;;;;;;15.10;99.90;;;;;;5053249;28;19908;-73
2022/10/01 09:05:01;;;;;;;;;;;15.10;99.90;;;;;;5051925;28;19962;-78
2022/10/01 09:07:46;;;;;;;;;;;15.20;99.90;;;;;;5051644;28;19920;-72
2022/10/01 09:10:35;;;;;;;;;;;15.10;99.90;;;;;;5053384;28;20289;-73
2022/10/01 09:13:09;;;;;;;;;;;15.10;99.90;;;;;;5045404;28;19909;-76
2022/10/01 09:15:36;;;;;;;;;;;15.10;99.90;;;;;;5053273;28;20439;-76
2022/10/01 09:18:03;;;;;;;;;;;15.00;99.90;;;;;;5053505;28;19944;-78
2022/10/01 09:20:35;;;;;;;;;;;15.10;99.90;;;;;;5052949;28;20349;-75
2022/10/01 09:23:14;;;;;;;;;;;15.20;99.90;;;;;;5052885;28;19970;-74
2022/10/01 09:25:42;;;;;;;;;;;15.10;99.90;;;;;;5053066;28;19917;-74
2022/10/01 09:28:22;;;;;;;;;;;15.10;99.90;;;;;;5053281;28;20319;-77
2022/10/01 09:30:53;;;;;;;;;;;15.10;99.90;;;;;;5052892;28;20340;-77
2022/10/01 09:33:21;;;;;;;;;;;15.00;99.90;;;;;;5052692;28;20320;-78
2022/10/01 09:36:07;;;;;;;;;;;15.10;99.90;;;;;;5052886;28;19916;-74
2022/10/01 09:38:47;;;;;;;;;;;15.10;99.90;;;;;;5052249;28;20012;-77
2022/10/01 09:41:14;;;;;;;;;;;15.10;99.90;;;;;;5052493;28;19908;-78
2022/10/01 09:43:43;;;;;;;;;;;15.10;99.90;;;;;;5076048;28;20392;-77
2022/10/01 09:46:13;;;;;;;;;;;15.00;99.90;;;;;;5092925;28;19935;-80
2022/10/01 09:48:42;;;;;;;;;;;15.00;99.90;;;;;;5092929;28;20337;-79
2022/10/01 09:51:24;;;;;;;;;;;14.90;99.90;;;;;;5092759;28;19908;-75
2022/10/01 09:54:02;;;;;;;;;;;15.00;99.90;;;;;;5092867;28;19961;-73
2022/10/01 09:56:44;;;;;;;;;;;14.90;99.90;;;;;;5092335;28;19991;-74
2022/10/01 09:59:16;;;;;;;;;;;14.90;99.90;;;;;;5092307;28;19908;-75
2022/10/01 10:01:57;;;;;;;;;;;14.90;99.90;;;;;;5092149;28;19915;-73
2022/10/01 10:04:24;;;;;;;;;;;14.80;99.90;;;;;;5092292;28;20368;-76
2022/10/01 10:06:58;;;;;;;;;;;14.80;99.90;;;;;;5087933;28;20277;-75
2022/10/01 10:09:28;;;;;;;;;;;14.70;99.90;;;;;;5090904;28;19912;-77
2022/10/01 10:11:56;;;;;;;;;;;14.80;99.90;;;;;;5092354;28;20398;-75
2022/10/01 10:14:43;;;;;;;;;;;14.60;99.90;;;;;;5092153;28;19934;-74
2022/10/01 10:17:15;;;;;;;;;;;14.60;99.90;;;;;;5094097;28;20002;-74
2022/10/01 10:19:50;;;;;;;;;;;14.60;99.90;;;;;;5092173;28;19908;-75
2022/10/01 10:22:27;;;;;;;;;;;14.50;99.90;;;;;;5092113;28;20387;-76
2022/10/01 10:24:56;;;;;;;;;;;14.50;99.90;;;;;;5092304;28;19920;-73
2022/10/01 10:27:27;;;;;;;;;;;14.50;99.90;;;;;;5092163;28;19961;-77
2022/10/01 10:30:12;;;;;;;;;;;14.50;99.90;;;;;;5091859;28;19961;-75
2022/10/01 10:32:40;;;;;;;;;;;14.50;99.90;;;;;;5091721;28;20378;-72
2022/10/01 10:35:14;;;;;;;;;;;14.40;99.90;;;;;;5094418;28;19908;-73
2022/10/01 10:37:49;;;;;;;;;;;14.40;99.90;;;;;;5091744;28;20324;-79
2022/10/01 10:40:17;;;;;;;;;;;14.50;99.90;;;;;;5092012;28;19959;-72
2022/10/01 10:42:50;;;;;;;;;;;14.50;99.90;;;;;;5092027;28;19912;-77
2022/10/01 10:45:19;;;;;;;;;;;14.50;99.90;;;;;;5091759;28;19924;-77
2022/10/01 10:47:47;;;;;;;;;;;14.50;99.90;;;;;;5091953;28;20321;-73
2022/10/01 10:50:25;;;;;;;;;;;14.50;99.90;;;;;;5092220;28;20268;-72
2022/10/01 10:52:52;;;;;;;;;;;14.50;99.90;;;;;;5093708;28;19916;-77
2022/10/01 10:55:29;;;;;;;;;;;14.50;99.90;;;;;;5091868;28;19939;-75
2022/10/01 10:58:06;;;;;;;;;;;14.50;99.90;;;;;;5091956;28;19996;-77
2022/10/01 11:00:35;;;;;;;;;;;14.50;99.90;;;;;;5093864;28;19969;-76
2022/10/01 11:03:04;;;;;;;;;;;14.50;99.90;;;;;;5095784;28;19915;-73
2022/10/01 11:05:33;;;;;;;;;;;14.40;99.90;;;;;;5095810;28;19951;-78
2022/10/01 11:08:02;;;;;;;;;;;14.40;99.90;;;;;;5095867;28;20291;-72
2022/10/01 11:10:34;;;;;;;;;;;14.50;99.90;;;;;;5095754;28;19915;-75
2022/10/01 11:13:07;;;;;;;;;;;14.40;99.90;;;;;;5095593;28;19909;-74
2022/10/01 11:15:52;;;;;;;;;;;14.40;99.90;;;;;;5095764;28;19908;-74
2022/10/01 11:18:36;;;;;;;;;;;14.40;99.90;;;;;;5093636;28;19908;-77
2022/10/01 11:21:21;;;;;;;;;;;14.30;99.90;;;;;;5088925;28;19912;-76
2022/10/01 11:23:57;;;;;;;;;;;14.20;99.90;;;;;;5092594;28;19908;-78
2022/10/01 11:26:38;;;;;;;;;;;14.20;99.90;;;;;;5083305;28;19920;-73
2022/10/01 11:29:11;;;;;;;;;;;14.20;99.90;;;;;;5092175;28;20015;-73
2022/10/01 11:31:47;;;;;;;;;;;14.20;99.90;;;;;;5094921;28;19955;-75
2022/10/01 11:34:17;;;;;;;;;;;14.20;99.90;;;;;;5094901;28;19908;-76
2022/10/01 11:36:47;;;;;;;;;;;14.20;99.90;;;;;;5091584;28;19917;-74
2022/10/01 11:39:16;;;;;;;;;;;14.10;99.90;;;;;;5074935;28;19993;-75
2022/10/01 11:41:51;;;;;;;;;;;14.10;99.90;;;;;;5075029;28;19915;-77
2022/10/01 11:44:28;;;;;;;;;;;14.10;99.90;;;;;;5075544;28;19929;-74
2022/10/01 11:47:15;;;;;;;;;;;14.00;99.90;;;;;;5073686;28;19974;-77
2022/10/01 11:50:02;;;;;;;;;;;14.00;99.90;;;;;;5093463;28;19912;-76
2022/10/01 11:52:37;;;;;;;;;;;13.80;99.90;;;;;;5093752;28;19951;-75
2022/10/01 12:01:05;;;;;;;;;;;13.70;99.90;;;;;;5074431;28;20329;-75
2022/10/01 12:03:36;;;;;;;;;;;13.70;99.90;;;;;;5067459;28;19912;-76
2022/10/01 12:06:08;;;;;;;;;;;13.60;99.90;;;;;;5081347;28;19921;-73
2022/10/01 12:08:36;;;;;;;;;;;13.70;99.90;;;;;;5094035;28;19908;-76
2022/10/01 12:11:23;;;;;;;;;;;13.60;99.90;;;;;;5094058;28;19953;-76
2022/10/01 12:13:54;;;;;;;;;;;13.60;99.90;;;;;;5094373;28;19908;-78
2022/10/01 12:16:44;;;;;;;;;;;13.60;99.90;;;;;;5106786;28;20356;-77
2022/10/01 12:19:13;;;;;;;;;;;13.60;99.90;;;;;;5061300;28;20280;-77
2022/10/01 12:21:48;;;;;;;;;;;13.60;99.90;;;;;;5100912;28;19908;-74
2022/10/01 12:24:27;;;;;;;;;;;13.60;99.90;;;;;;5110418;28;19916;-76
2022/10/01 12:26:57;;;;;;;;;;;13.70;99.90;;;;;;5095322;28;19964;-74
2022/10/01 12:29:33;;;;;;;;;;;13.70;99.90;;;;;;5092544;28;20367;-76
2022/10/01 12:32:12;;;;;;;;;;;13.70;99.90;;;;;;5114401;28;19911;-75
2022/10/01 12:34:48;;;;;;;;;;;13.80;99.90;;;;;;5095074;28;20379;-76
2022/10/01 12:37:25;;;;;;;;;;;13.80;99.90;;;;;;5081074;28;20377;-73
2022/10/01 12:40:01;;;;;;;;;;;13.80;99.90;;;;;;5073446;28;20361;-76
2022/10/01 12:42:40;;;;;;;;;;;13.80;99.90;;;;;;5073261;28;19909;-73
2022/10/01 12:45:18;;;;;;;;;;;13.80;99.90;;;;;;5083557;28;20402;-75
2022/10/01 12:48:00;;;;;;;;;;;13.70;99.90;;;;;;5114335;28;19919;-73
2022/10/01 12:50:29;;;;;;;;;;;13.70;99.90;;;;;;5089391;28;19958;-74
2022/10/01 12:53:05;;;;;;;;;;;13.60;99.90;;;;;;5074957;28;19915;-72
2022/10/01 12:55:38;;;;;;;;;;;13.60;99.90;;;;;;5085787;28;20318;-75
2022/10/01 12:58:16;;;;;;;;;;;13.60;99.90;;;;;;5093261;28;20322;-76
2022/10/01 13:01:03;;;;;;;;;;;13.50;99.90;;;;;;5078952;28;19966;-73
2022/10/01 13:03:29;;;;;;;;;;;13.60;99.90;;;;;;5113707;28;19908;-76
2022/10/01 13:06:00;;;;;;;;;;;13.60;99.90;;;;;;5102685;28;19945;-77
2022/10/01 13:08:26;;;;;;;;;;;13.60;99.90;;;;;;5075801;28;19912;-77
2022/10/01 13:11:02;;;;;;;;;;;13.60;99.90;;;;;;5073114;28;20362;-77
2022/10/01 13:13:33;;;;;;;;;;;13.60;99.90;;;;;;5076944;28;19944;-79
2022/10/01 13:16:05;;;;;;;;;;;13.70;99.90;;;;;;5093321;28;19912;-78
2022/10/01 13:18:39;;;;;;;;;;;13.70;99.90;;;;;;5093250;28;19909;-76
2022/10/01 13:21:10;;;;;;;;;;;13.70;99.90;;;;;;5082714;28;19916;-77
2022/10/01 13:23:46;;;;;;;;;;;13.60;99.90;;;;;;5088165;28;20058;-76
2022/10/01 13:26:16;;;;;;;;;;;13.70;99.90;;;;;;5090187;28;20308;-76
2022/10/01 13:28:46;;;;;;;;;;;13.70;99.90;;;;;;5088129;28;19919;-75
2022/10/01 13:31:14;;;;;;;;;;;13.80;99.90;;;;;;5089425;28;19908;-76
2022/10/01 13:33:41;;;;;;;;;;;13.70;99.90;;;;;;5091078;28;19912;-75
2022/10/01 13:36:12;;;;;;;;;;;13.70;99.90;;;;;;5096366;28;19913;-74
2022/10/01 13:38:41;;;;;;;;;;;13.70;99.90;;;;;;5093058;28;19912;-76
2022/10/01 13:41:17;;;;;;;;;;;13.60;99.90;;;;;;5092770;28;19915;-78
2022/10/01 13:43:55;;;;;;;;;;;13.60;99.90;;;;;;5091687;28;19926;-76
2022/10/01 13:46:22;;;;;;;;;;;13.60;99.90;;;;;;5092037;28;19999;-76
2022/10/01 13:48:49;;;;;;;;;;;13.60;99.90;;;;;;5086467;28;20285;-75
2022/10/01 13:51:16;;;;;;;;;;;13.50;99.90;;;;;;5092570;28;19912;-77
2022/10/01 13:53:43;;;;;;;;;;;13.40;99.90;;;;;;5092593;28;19908;-77
2022/10/01 13:56:11;;;;;;;;;;;13.40;99.90;;;;;;5091506;28;20376;-77
2022/10/01 13:58:39;;;;;;;;;;;13.30;99.90;;;;;;5091795;28;19981;-72
2022/10/01 14:01:21;;;;;;;;;;;13.30;99.90;;;;;;5092688;28;20299;-74
2022/10/01 14:04:20;;;;;;;;;;;13.20;99.90;;;;;;5092243;28;19908;-75
2022/10/01 14:06:50;;;;;;;;;;;13.10;99.90;;;;;;5034140;28;20007;-75
2022/10/01 14:09:25;;;;;;;;;;;13.10;99.90;;;;;;5092067;28;19913;-72
2022/10/01 14:17:41;;;;;;;;;;;12.80;99.90;;;;;;5089926;28;19912;-77
2022/10/01 14:20:08;;;;;;;;;;;12.70;99.90;;;;;;5091808;28;19916;-75
2022/10/01 14:22:44;;;;;;;;;;;12.70;99.90;;;;;;5092174;28;19969;-76
2022/10/01 14:25:21;;;;;;;;;;;12.60;99.90;;;;;;5092259;28;20330;-75
2022/10/01 14:28:00;;;;;;;;;;;12.70;99.90;;;;;;5090883;28;19914;-72
2022/10/01 14:30:55;;;;;;;;;;;12.70;99.90;;;;;;5086838;28;19918;-75
2022/10/01 14:33:31;;;;;;;;;;;12.70;99.90;;;;;;5037208;28;20384;-76
2022/10/01 14:36:00;;;;;;;;;;;12.60;99.90;;;;;;5090295;28;19912;-74
2022/10/01 14:38:27;;;;;;;;;;;12.60;99.90;;;;;;5092056;28;19912;-76
2022/10/01 14:40:54;;;;;;;;;;;12.50;99.90;;;;;;5090669;28;19912;-74
2022/10/01 14:43:20;;;;;;;;;;;12.50;99.90;;;;;;5091650;28;19965;-74
2022/10/01 14:45:50;;;;;;;;;;;12.40;99.90;;;;;;5090723;28;19920;-74
2022/10/01 14:48:16;;;;;;;;;;;12.40;99.90;;;;;;5091496;28;20453;-74